sensor_id;sensor_type;location;lat;lon;timestamp;P1;durP1;ratioP1;P2;durP2;ratioP2
18752;SDS011;9505;50.882;5.350;2022-12-07T00:01:24;47.58;;;14.10;;
18752;SDS011;9505;50.882;5.350;2022-12-07T00:03:55;37.92;;;13.57;;
18752;SDS011;9505;50.882;5.350;2022-12-07T00:06:25;48.85;;;15.60;;
18752;SDS011;9505;50.882;5.350;2022-12-07T00:08:51;42.70;;;14.43;;
18752;SDS011;9505;50.882;5.350;2022-12-07T00:11:18;44.47;;;13.35;;
18752;SDS011;9505;50.882;5.350;2022-12-07T00:13:45;45.08;;;14.10;;
18752;SDS011;9505;50.882;5.350;2022-12-07T00:16:13;38.85;;;13.38;;
18752;SDS011;9505;50.882;5.350;2022-12-07T00:18:40;37.60;;;13.55;;
18752;SDS011;9505;50.882;5.350;2022-12-07T00:21:08;34.25;;;12.75;;
18752;SDS011;9505;50.882;5.350;2022-12-07T00:23:36;40.42;;;14.68;;
18752;SDS011;9505;50.882;5.350;2022-12-07T00:28:57;36.08;;;12.35;;
18752;SDS011;9505;50.882;5.350;2022-12-07T00:31:25;59.17;;;14.25;;
18752;SDS011;9505;50.882;5.350;2022-12-07T00:33:53;43.67;;;13.60;;
18752;SDS011;9505;50.882;5.350;2022-12-07T00:36:19;41.83;;;14.02;;
18752;SDS011;9505;50.882;5.350;2022-12-07T00:38:47;42.33;;;14.48;;
18752;SDS011;9505;50.882;5.350;2022-12-07T00:41:16;45.25;;;14.32;;
18752;SDS011;9505;50.882;5.350;2022-12-07T00:43:44;52.58;;;14.25;;
18752;SDS011;9505;50.882;5.350;2022-12-07T00:46:11;50.47;;;14.85;;
18752;SDS011;9505;50.882;5.350;2022-12-07T00:48:38;44.58;;;14.07;;
18752;SDS011;9505;50.882;5.350;2022-12-07T00:51:04;44.13;;;14.45;;
18752;SDS011;9505;50.882;5.350;2022-12-07T00:53:30;43.60;;;14.18;;
18752;SDS011;9505;50.882;5.350;2022-12-07T00:56:04;40.47;;;13.73;;
18752;SDS011;9505;50.882;5.350;2022-12-07T00:58:30;49.28;;;15.30;;
18752;SDS011;9505;50.882;5.350;2022-12-07T01:00:56;43.20;;;15.10;;
18752;SDS011;9505;50.882;5.350;2022-12-07T01:03:26;50.30;;;14.65;;
18752;SDS011;9505;50.882;5.350;2022-12-07T01:05:52;48.03;;;15.55;;
18752;SDS011;9505;50.882;5.350;2022-12-07T01:08:20;42.60;;;14.88;;
18752;SDS011;9505;50.882;5.350;2022-12-07T01:10:46;39.80;;;13.85;;
18752;SDS011;9505;50.882;5.350;2022-12-07T01:13:12;39.00;;;13.65;;
18752;SDS011;9505;50.882;5.350;2022-12-07T01:15:39;47.63;;;15.77;;
18752;SDS011;9505;50.882;5.350;2022-12-07T01:18:05;39.97;;;13.52;;
18752;SDS011;9505;50.882;5.350;2022-12-07T01:20:31;39.35;;;14.73;;
18752;SDS011;9505;50.882;5.350;2022-12-07T01:22:56;42.08;;;15.40;;
18752;SDS011;9505;50.882;5.350;2022-12-07T01:25:22;44.85;;;16.52;;
18752;SDS011;9505;50.882;5.350;2022-12-07T01:27:47;45.05;;;14.95;;
18752;SDS011;9505;50.882;5.350;2022-12-07T01:30:13;48.85;;;15.48;;
18752;SDS011;9505;50.882;5.350;2022-12-07T01:32:39;49.58;;;16.35;;
18752;SDS011;9505;50.882;5.350;2022-12-07T01:35:04;40.50;;;15.13;;
18752;SDS011;9505;50.882;5.350;2022-12-07T01:37:34;48.47;;;16.90;;
18752;SDS011;9505;50.882;5.350;2022-12-07T01:40:07;34.10;;;13.98;;
18752;SDS011;9505;50.882;5.350;2022-12-07T01:42:35;48.00;;;16.17;;
18752;SDS011;9505;50.882;5.350;2022-12-07T01:48:05;41.33;;;14.95;;
18752;SDS011;9505;50.882;5.350;2022-12-07T01:50:32;49.72;;;15.70;;
18752;SDS011;9505;50.882;5.350;2022-12-07T01:52:58;43.05;;;16.27;;
18752;SDS011;9505;50.882;5.350;2022-12-07T01:55:28;46.50;;;14.85;;
18752;SDS011;9505;50.882;5.350;2022-12-07T01:57:54;46.60;;;15.45;;
18752;SDS011;9505;50.882;5.350;2022-12-07T02:00:21;46.63;;;15.75;;
18752;SDS011;9505;50.882;5.350;2022-12-07T02:02:48;49.75;;;14.75;;
18752;SDS011;9505;50.882;5.350;2022-12-07T02:05:15;44.63;;;14.90;;
18752;SDS011;9505;50.882;5.350;2022-12-07T02:07:42;47.35;;;14.27;;
18752;SDS011;9505;50.882;5.350;2022-12-07T02:10:18;41.40;;;14.15;;
18752;SDS011;9505;50.882;5.350;2022-12-07T02:12:51;48.58;;;15.02;;
18752;SDS011;9505;50.882;5.350;2022-12-07T02:15:23;38.10;;;13.40;;
18752;SDS011;9505;50.882;5.350;2022-12-07T02:21:01;50.25;;;15.10;;
18752;SDS011;9505;50.882;5.350;2022-12-07T02:27:10;41.05;;;15.63;;
18752;SDS011;9505;50.882;5.350;2022-12-07T02:29:13;39.25;;;14.38;;
18752;SDS011;9505;50.882;5.350;2022-12-07T02:31:53;51.15;;;16.10;;
18752;SDS011;9505;50.882;5.350;2022-12-07T02:34:49;39.58;;;14.75;;
18752;SDS011;9505;50.882;5.350;2022-12-07T02:42:41;47.70;;;16.23;;
18752;SDS011;9505;50.882;5.350;2022-12-07T02:45:10;45.17;;;15.95;;
18752;SDS011;9505;50.882;5.350;2022-12-07T02:47:39;59.88;;;18.55;;
18752;SDS011;9505;50.882;5.350;2022-12-07T02:50:06;48.33;;;16.45;;
18752;SDS011;9505;50.882;5.350;2022-12-07T02:52:32;57.80;;;18.23;;
18752;SDS011;9505;50.882;5.350;2022-12-07T02:54:58;48.60;;;16.60;;
18752;SDS011;9505;50.882;5.350;2022-12-07T02:57:27;45.95;;;16.48;;
18752;SDS011;9505;50.882;5.350;2022-12-07T03:00:00;49.85;;;17.10;;
18752;SDS011;9505;50.882;5.350;2022-12-07T03:02:49;56.13;;;17.98;;
18752;SDS011;9505;50.882;5.350;2022-12-07T03:21:16;55.67;;;19.20;;
18752;SDS011;9505;50.882;5.350;2022-12-07T03:23:45;59.80;;;18.50;;
18752;SDS011;9505;50.882;5.350;2022-12-07T03:26:16;46.88;;;18.27;;
18752;SDS011;9505;50.882;5.350;2022-12-07T03:28:45;61.35;;;19.77;;
18752;SDS011;9505;50.882;5.350;2022-12-07T03:31:23;46.72;;;18.10;;
18752;SDS011;9505;50.882;5.350;2022-12-07T03:34:06;60.80;;;19.75;;
18752;SDS011;9505;50.882;5.350;2022-12-07T03:39:34;51.45;;;18.02;;
18752;SDS011;9505;50.882;5.350;2022-12-07T03:42:04;52.92;;;18.30;;
18752;SDS011;9505;50.882;5.350;2022-12-07T03:44:32;52.03;;;18.30;;
18752;SDS011;9505;50.882;5.350;2022-12-07T03:47:06;64.80;;;20.27;;
18752;SDS011;9505;50.882;5.350;2022-12-07T03:52:26;54.47;;;18.85;;
18752;SDS011;9505;50.882;5.350;2022-12-07T03:58:00;52.75;;;19.25;;
18752;SDS011;9505;50.882;5.350;2022-12-07T04:00:30;53.17;;;17.42;;
18752;SDS011;9505;50.882;5.350;2022-12-07T04:02:56;46.95;;;18.08;;
18752;SDS011;9505;50.882;5.350;2022-12-07T04:05:21;49.08;;;16.83;;
18752;SDS011;9505;50.882;5.350;2022-12-07T04:07:48;46.05;;;17.92;;
18752;SDS011;9505;50.882;5.350;2022-12-07T04:10:13;46.65;;;17.90;;
18752;SDS011;9505;50.882;5.350;2022-12-07T04:12:39;44.30;;;16.63;;
18752;SDS011;9505;50.882;5.350;2022-12-07T04:15:05;53.88;;;18.08;;
18752;SDS011;9505;50.882;5.350;2022-12-07T04:17:31;46.00;;;17.00;;
18752;SDS011;9505;50.882;5.350;2022-12-07T04:19:56;47.15;;;15.95;;
18752;SDS011;9505;50.882;5.350;2022-12-07T04:22:22;48.40;;;15.27;;
18752;SDS011;9505;50.882;5.350;2022-12-07T04:24:48;45.75;;;14.75;;
18752;SDS011;9505;50.882;5.350;2022-12-07T04:27:13;42.85;;;15.25;;
18752;SDS011;9505;50.882;5.350;2022-12-07T04:29:39;41.47;;;15.20;;
18752;SDS011;9505;50.882;5.350;2022-12-07T04:32:05;45.97;;;14.98;;
18752;SDS011;9505;50.882;5.350;2022-12-07T04:34:31;49.78;;;15.00;;
18752;SDS011;9505;50.882;5.350;2022-12-07T04:36:56;47.17;;;15.00;;
18752;SDS011;9505;50.882;5.350;2022-12-07T04:39:28;44.20;;;13.20;;
18752;SDS011;9505;50.882;5.350;2022-12-07T04:41:56;50.55;;;15.50;;
18752;SDS011;9505;50.882;5.350;2022-12-07T04:44:23;46.80;;;14.80;;
18752;SDS011;9505;50.882;5.350;2022-12-07T04:46:50;45.78;;;14.93;;
18752;SDS011;9505;50.882;5.350;2022-12-07T04:49:16;38.72;;;13.38;;
18752;SDS011;9505;50.882;5.350;2022-12-07T04:51:42;44.00;;;12.95;;
18752;SDS011;9505;50.882;5.350;2022-12-07T04:54:08;43.72;;;14.32;;
18752;SDS011;9505;50.882;5.350;2022-12-07T04:56:34;41.17;;;14.35;;
18752;SDS011;9505;50.882;5.350;2022-12-07T04:59:03;38.17;;;13.70;;
18752;SDS011;9505;50.882;5.350;2022-12-07T05:01:28;44.90;;;16.17;;
18752;SDS011;9505;50.882;5.350;2022-12-07T05:03:54;39.72;;;14.38;;
18752;SDS011;9505;50.882;5.350;2022-12-07T05:06:20;52.15;;;16.50;;
18752;SDS011;9505;50.882;5.350;2022-12-07T05:08:45;59.20;;;18.83;;
18752;SDS011;9505;50.882;5.350;2022-12-07T05:11:11;51.45;;;17.42;;
18752;SDS011;9505;50.882;5.350;2022-12-07T05:13:57;47.67;;;16.10;;
18752;SDS011;9505;50.882;5.350;2022-12-07T05:16:23;36.05;;;13.85;;
18752;SDS011;9505;50.882;5.350;2022-12-07T05:18:49;46.70;;;17.23;;
18752;SDS011;9505;50.882;5.350;2022-12-07T05:21:15;41.28;;;15.10;;
18752;SDS011;9505;50.882;5.350;2022-12-07T05:23:40;43.22;;;13.73;;
18752;SDS011;9505;50.882;5.350;2022-12-07T05:26:06;50.10;;;14.15;;
18752;SDS011;9505;50.882;5.350;2022-12-07T05:28:31;47.22;;;14.80;;
18752;SDS011;9505;50.882;5.350;2022-12-07T05:30:57;44.72;;;15.77;;
18752;SDS011;9505;50.882;5.350;2022-12-07T05:33:22;48.00;;;15.52;;
18752;SDS011;9505;50.882;5.350;2022-12-07T05:35:48;40.83;;;15.82;;
18752;SDS011;9505;50.882;5.350;2022-12-07T05:38:14;72.50;;;15.32;;
18752;SDS011;9505;50.882;5.350;2022-12-07T05:40:39;46.70;;;18.25;;
18752;SDS011;9505;50.882;5.350;2022-12-07T05:43:05;52.03;;;15.85;;
18752;SDS011;9505;50.882;5.350;2022-12-07T05:45:30;45.67;;;15.43;;
18752;SDS011;9505;50.882;5.350;2022-12-07T05:47:56;58.45;;;17.95;;
18752;SDS011;9505;50.882;5.350;2022-12-07T05:50:21;55.45;;;17.30;;
18752;SDS011;9505;50.882;5.350;2022-12-07T05:52:47;62.85;;;20.67;;
18752;SDS011;9505;50.882;5.350;2022-12-07T05:55:13;51.60;;;18.15;;
18752;SDS011;9505;50.882;5.350;2022-12-07T05:57:38;65.78;;;19.85;;
18752;SDS011;9505;50.882;5.350;2022-12-07T06:00:04;57.70;;;17.83;;
18752;SDS011;9505;50.882;5.350;2022-12-07T06:02:30;53.08;;;18.30;;
18752;SDS011;9505;50.882;5.350;2022-12-07T06:04:56;46.70;;;15.98;;
18752;SDS011;9505;50.882;5.350;2022-12-07T06:07:21;68.65;;;21.38;;
18752;SDS011;9505;50.882;5.350;2022-12-07T06:09:47;51.40;;;17.95;;
18752;SDS011;9505;50.882;5.350;2022-12-07T06:12:13;56.08;;;18.95;;
18752;SDS011;9505;50.882;5.350;2022-12-07T06:14:57;46.90;;;16.40;;
18752;SDS011;9505;50.882;5.350;2022-12-07T06:17:23;54.50;;;18.25;;
18752;SDS011;9505;50.882;5.350;2022-12-07T06:19:49;59.78;;;17.23;;
18752;SDS011;9505;50.882;5.350;2022-12-07T06:22:14;61.28;;;19.33;;
18752;SDS011;9505;50.882;5.350;2022-12-07T06:24:41;56.17;;;18.17;;
18752;SDS011;9505;50.882;5.350;2022-12-07T06:27:07;59.83;;;19.52;;
18752;SDS011;9505;50.882;5.350;2022-12-07T06:29:33;45.22;;;15.88;;
18752;SDS011;9505;50.882;5.350;2022-12-07T06:31:59;47.42;;;17.25;;
18752;SDS011;9505;50.882;5.350;2022-12-07T06:34:25;51.35;;;16.77;;
18752;SDS011;9505;50.882;5.350;2022-12-07T06:36:51;97.68;;;23.38;;
18752;SDS011;9505;50.882;5.350;2022-12-07T06:39:18;61.63;;;19.42;;
18752;SDS011;9505;50.882;5.350;2022-12-07T06:41:45;60.90;;;20.38;;
18752;SDS011;9505;50.882;5.350;2022-12-07T06:44:11;70.57;;;21.52;;
18752;SDS011;9505;50.882;5.350;2022-12-07T06:46:37;52.50;;;17.27;;
18752;SDS011;9505;50.882;5.350;2022-12-07T06:49:03;62.28;;;19.90;;
18752;SDS011;9505;50.882;5.350;2022-12-07T06:51:29;68.72;;;20.63;;
18752;SDS011;9505;50.882;5.350;2022-12-07T06:53:55;70.47;;;21.63;;
18752;SDS011;9505;50.882;5.350;2022-12-07T06:56:21;53.65;;;18.05;;
18752;SDS011;9505;50.882;5.350;2022-12-07T06:58:47;55.50;;;18.88;;
18752;SDS011;9505;50.882;5.350;2022-12-07T07:01:14;53.75;;;18.00;;
18752;SDS011;9505;50.882;5.350;2022-12-07T07:03:42;54.97;;;18.52;;
18752;SDS011;9505;50.882;5.350;2022-12-07T07:06:08;53.08;;;17.50;;
18752;SDS011;9505;50.882;5.350;2022-12-07T07:08:34;59.35;;;18.35;;
18752;SDS011;9505;50.882;5.350;2022-12-07T07:11:01;50.45;;;18.42;;
18752;SDS011;9505;50.882;5.350;2022-12-07T07:13:26;58.40;;;20.10;;
18752;SDS011;9505;50.882;5.350;2022-12-07T07:15:52;50.58;;;16.92;;
18752;SDS011;9505;50.882;5.350;2022-12-07T07:18:18;50.33;;;17.48;;
18752;SDS011;9505;50.882;5.350;2022-12-07T07:20:44;59.38;;;18.00;;
18752;SDS011;9505;50.882;5.350;2022-12-07T07:23:09;51.05;;;15.50;;
18752;SDS011;9505;50.882;5.350;2022-12-07T07:25:35;52.30;;;18.23;;
18752;SDS011;9505;50.882;5.350;2022-12-07T07:28:01;57.22;;;18.15;;
18752;SDS011;9505;50.882;5.350;2022-12-07T07:30:26;45.70;;;14.95;;
18752;SDS011;9505;50.882;5.350;2022-12-07T07:32:58;60.05;;;17.92;;
18752;SDS011;9505;50.882;5.350;2022-12-07T07:35:28;54.80;;;18.90;;
18752;SDS011;9505;50.882;5.350;2022-12-07T07:37:55;59.90;;;18.45;;
18752;SDS011;9505;50.882;5.350;2022-12-07T07:40:21;61.38;;;18.08;;
18752;SDS011;9505;50.882;5.350;2022-12-07T07:42:48;57.85;;;17.92;;
18752;SDS011;9505;50.882;5.350;2022-12-07T07:45:14;62.38;;;18.05;;
18752;SDS011;9505;50.882;5.350;2022-12-07T07:47:40;44.55;;;14.98;;
18752;SDS011;9505;50.882;5.350;2022-12-07T07:50:05;52.75;;;17.52;;
18752;SDS011;9505;50.882;5.350;2022-12-07T07:52:31;52.30;;;17.50;;
18752;SDS011;9505;50.882;5.350;2022-12-07T07:54:57;59.22;;;17.27;;
18752;SDS011;9505;50.882;5.350;2022-12-07T07:57:23;48.58;;;16.38;;
18752;SDS011;9505;50.882;5.350;2022-12-07T07:59:48;56.13;;;16.85;;
18752;SDS011;9505;50.882;5.350;2022-12-07T08:02:15;52.10;;;15.77;;
18752;SDS011;9505;50.882;5.350;2022-12-07T08:04:42;48.10;;;14.73;;
18752;SDS011;9505;50.882;5.350;2022-12-07T08:07:07;54.78;;;16.20;;
18752;SDS011;9505;50.882;5.350;2022-12-07T08:09:33;54.75;;;16.77;;
18752;SDS011;9505;50.882;5.350;2022-12-07T08:11:59;47.90;;;12.35;;
18752;SDS011;9505;50.882;5.350;2022-12-07T08:14:24;51.67;;;15.23;;
18752;SDS011;9505;50.882;5.350;2022-12-07T08:16:52;52.85;;;14.98;;
18752;SDS011;9505;50.882;5.350;2022-12-07T08:19:18;51.75;;;16.30;;
18752;SDS011;9505;50.882;5.350;2022-12-07T08:21:43;57.55;;;17.48;;
18752;SDS011;9505;50.882;5.350;2022-12-07T08:24:09;51.67;;;15.30;;
18752;SDS011;9505;50.882;5.350;2022-12-07T08:26:35;48.85;;;16.85;;
18752;SDS011;9505;50.882;5.350;2022-12-07T08:29:00;54.70;;;17.27;;
18752;SDS011;9505;50.882;5.350;2022-12-07T08:31:26;61.65;;;17.67;;
18752;SDS011;9505;50.882;5.350;2022-12-07T08:33:53;60.95;;;18.30;;
18752;SDS011;9505;50.882;5.350;2022-12-07T08:36:18;54.65;;;17.45;;
18752;SDS011;9505;50.882;5.350;2022-12-07T08:38:44;52.05;;;17.67;;
18752;SDS011;9505;50.882;5.350;2022-12-07T08:41:10;53.40;;;17.25;;
18752;SDS011;9505;50.882;5.350;2022-12-07T08:43:35;55.97;;;17.92;;
18752;SDS011;9505;50.882;5.350;2022-12-07T08:48:46;71.85;;;20.75;;
18752;SDS011;9505;50.882;5.350;2022-12-07T08:51:16;53.83;;;17.70;;
18752;SDS011;9505;50.882;5.350;2022-12-07T08:53:42;59.58;;;20.60;;
18752;SDS011;9505;50.882;5.350;2022-12-07T08:56:08;60.03;;;19.33;;
18752;SDS011;9505;50.882;5.350;2022-12-07T08:58:34;63.28;;;21.17;;
18752;SDS011;9505;50.882;5.350;2022-12-07T09:01:01;62.92;;;21.08;;
18752;SDS011;9505;50.882;5.350;2022-12-07T09:03:28;62.20;;;20.58;;
18752;SDS011;9505;50.882;5.350;2022-12-07T09:05:53;53.03;;;20.65;;
18752;SDS011;9505;50.882;5.350;2022-12-07T09:08:20;58.78;;;22.95;;
18752;SDS011;9505;50.882;5.350;2022-12-07T09:10:47;52.65;;;19.40;;
18752;SDS011;9505;50.882;5.350;2022-12-07T09:13:13;49.67;;;19.25;;
18752;SDS011;9505;50.882;5.350;2022-12-07T09:15:38;59.35;;;21.42;;
18752;SDS011;9505;50.882;5.350;2022-12-07T09:18:04;55.53;;;19.70;;
18752;SDS011;9505;50.882;5.350;2022-12-07T09:20:30;65.47;;;23.75;;
18752;SDS011;9505;50.882;5.350;2022-12-07T09:22:56;70.88;;;23.10;;
18752;SDS011;9505;50.882;5.350;2022-12-07T09:25:22;71.95;;;24.50;;
18752;SDS011;9505;50.882;5.350;2022-12-07T09:27:47;78.28;;;24.98;;
18752;SDS011;9505;50.882;5.350;2022-12-07T09:30:13;73.10;;;22.85;;
18752;SDS011;9505;50.882;5.350;2022-12-07T09:32:38;60.40;;;22.38;;
18752;SDS011;9505;50.882;5.350;2022-12-07T09:35:04;64.78;;;20.73;;
18752;SDS011;9505;50.882;5.350;2022-12-07T09:37:30;70.85;;;20.35;;
18752;SDS011;9505;50.882;5.350;2022-12-07T09:40:00;61.10;;;21.10;;
18752;SDS011;9505;50.882;5.350;2022-12-07T09:42:28;56.13;;;18.88;;
18752;SDS011;9505;50.882;5.350;2022-12-07T09:44:59;52.35;;;18.35;;
18752;SDS011;9505;50.882;5.350;2022-12-07T09:47:25;58.03;;;17.63;;
18752;SDS011;9505;50.882;5.350;2022-12-07T09:49:53;48.42;;;15.93;;
18752;SDS011;9505;50.882;5.350;2022-12-07T09:52:28;46.58;;;14.68;;
18752;SDS011;9505;50.882;5.350;2022-12-07T09:54:54;41.33;;;14.38;;
18752;SDS011;9505;50.882;5.350;2022-12-07T09:57:23;39.00;;;12.80;;
18752;SDS011;9505;50.882;5.350;2022-12-07T09:59:55;44.65;;;12.05;;
18752;SDS011;9505;50.882;5.350;2022-12-07T10:02:40;45.22;;;13.10;;
18752;SDS011;9505;50.882;5.350;2022-12-07T10:05:16;45.33;;;13.00;;
18752;SDS011;9505;50.882;5.350;2022-12-07T10:07:44;41.67;;;14.10;;
18752;SDS011;9505;50.882;5.350;2022-12-07T10:10:15;35.88;;;11.32;;
18752;SDS011;9505;50.882;5.350;2022-12-07T10:12:55;36.33;;;11.63;;
18752;SDS011;9505;50.882;5.350;2022-12-07T10:18:25;44.33;;;12.60;;
18752;SDS011;9505;50.882;5.350;2022-12-07T10:21:04;39.22;;;11.90;;
18752;SDS011;9505;50.882;5.350;2022-12-07T10:23:33;53.03;;;13.63;;
18752;SDS011;9505;50.882;5.350;2022-12-07T10:25:59;45.55;;;14.13;;
18752;SDS011;9505;50.882;5.350;2022-12-07T10:28:44;48.00;;;14.70;;
18752;SDS011;9505;50.882;5.350;2022-12-07T10:31:17;45.50;;;15.23;;
18752;SDS011;9505;50.882;5.350;2022-12-07T10:33:58;52.83;;;15.30;;
18752;SDS011;9505;50.882;5.350;2022-12-07T10:41:53;36.17;;;9.35;;
18752;SDS011;9505;50.882;5.350;2022-12-07T10:44:30;38.60;;;8.98;;
18752;SDS011;9505;50.882;5.350;2022-12-07T10:55:26;24.17;;;6.25;;
18752;SDS011;9505;50.882;5.350;2022-12-07T10:58:04;25.42;;;6.78;;
18752;SDS011;9505;50.882;5.350;2022-12-07T11:17:31;21.67;;;6.55;;
18752;SDS011;9505;50.882;5.350;2022-12-07T11:37:25;28.95;;;7.13;;
18752;SDS011;9505;50.882;5.350;2022-12-07T11:40:03;35.72;;;7.70;;
18752;SDS011;9505;50.882;5.350;2022-12-07T11:42:39;40.08;;;8.27;;
18752;SDS011;9505;50.882;5.350;2022-12-07T11:45:13;23.80;;;6.63;;
18752;SDS011;9505;50.882;5.350;2022-12-07T12:00:46;25.77;;;5.75;;
18752;SDS011;9505;50.882;5.350;2022-12-07T12:03:20;21.67;;;5.50;;
18752;SDS011;9505;50.882;5.350;2022-12-07T12:05:55;33.78;;;5.70;;
18752;SDS011;9505;50.882;5.350;2022-12-07T12:08:23;33.42;;;6.43;;
18752;SDS011;9505;50.882;5.350;2022-12-07T12:10:57;26.90;;;5.45;;
18752;SDS011;9505;50.882;5.350;2022-12-07T12:13:50;26.67;;;5.82;;
18752;SDS011;9505;50.882;5.350;2022-12-07T12:21:27;38.63;;;6.30;;
18752;SDS011;9505;50.882;5.350;2022-12-07T12:26:48;30.95;;;4.90;;
18752;SDS011;9505;50.882;5.350;2022-12-07T12:29:34;27.90;;;5.32;;
18752;SDS011;9505;50.882;5.350;2022-12-07T12:32:28;25.73;;;4.90;;
18752;SDS011;9505;50.882;5.350;2022-12-07T12:35:01;29.83;;;4.95;;
18752;SDS011;9505;50.882;5.350;2022-12-07T12:37:45;16.95;;;3.85;;
18752;SDS011;9505;50.882;5.350;2022-12-07T12:40:37;27.38;;;4.45;;
18752;SDS011;9505;50.882;5.350;2022-12-07T12:42:57;19.80;;;4.43;;
18752;SDS011;9505;50.882;5.350;2022-12-07T12:45:26;20.83;;;4.63;;
18752;SDS011;9505;50.882;5.350;2022-12-07T12:48:00;19.20;;;4.00;;
18752;SDS011;9505;50.882;5.350;2022-12-07T12:50:28;21.90;;;4.55;;
18752;SDS011;9505;50.882;5.350;2022-12-07T12:58:52;16.73;;;3.97;;
18752;SDS011;9505;50.882;5.350;2022-12-07T13:01:40;16.60;;;3.22;;
18752;SDS011;9505;50.882;5.350;2022-12-07T13:06:59;22.23;;;3.60;;
18752;SDS011;9505;50.882;5.350;2022-12-07T13:09:29;17.95;;;2.97;;
18752;SDS011;9505;50.882;5.350;2022-12-07T13:11:58;25.58;;;3.75;;
18752;SDS011;9505;50.882;5.350;2022-12-07T13:17:59;32.88;;;4.30;;
18752;SDS011;9505;50.882;5.350;2022-12-07T13:20:06;48.42;;;6.63;;
18752;SDS011;9505;50.882;5.350;2022-12-07T13:27:39;51.70;;;6.47;;
18752;SDS011;9505;50.882;5.350;2022-12-07T13:30:16;48.17;;;6.35;;
18752;SDS011;9505;50.882;5.350;2022-12-07T13:32:50;49.20;;;6.22;;
18752;SDS011;9505;50.882;5.350;2022-12-07T13:35:31;54.17;;;6.47;;
18752;SDS011;9505;50.882;5.350;2022-12-07T13:37:59;47.67;;;5.68;;
18752;SDS011;9505;50.882;5.350;2022-12-07T13:40:27;50.75;;;6.28;;
18752;SDS011;9505;50.882;5.350;2022-12-07T13:43:02;35.28;;;4.65;;
18752;SDS011;9505;50.882;5.350;2022-12-07T13:45:33;57.13;;;7.10;;
18752;SDS011;9505;50.882;5.350;2022-12-07T13:48:36;54.00;;;6.57;;
18752;SDS011;9505;50.882;5.350;2022-12-07T13:51:12;28.08;;;3.58;;
18752;SDS011;9505;50.882;5.350;2022-12-07T13:53:53;52.78;;;6.18;;
18752;SDS011;9505;50.882;5.350;2022-12-07T13:56:25;42.38;;;4.60;;
18752;SDS011;9505;50.882;5.350;2022-12-07T13:58:58;57.45;;;6.75;;
18752;SDS011;9505;50.882;5.350;2022-12-07T14:01:25;35.92;;;4.47;;
18752;SDS011;9505;50.882;5.350;2022-12-07T14:03:51;23.98;;;3.20;;
18752;SDS011;9505;50.882;5.350;2022-12-07T14:06:22;40.78;;;4.88;;
18752;SDS011;9505;50.882;5.350;2022-12-07T14:11:52;57.13;;;6.18;;
18752;SDS011;9505;50.882;5.350;2022-12-07T14:14:21;66.40;;;7.53;;
18752;SDS011;9505;50.882;5.350;2022-12-07T14:17:00;67.60;;;7.57;;
18752;SDS011;9505;50.882;5.350;2022-12-07T14:19:42;65.30;;;7.35;;
18752;SDS011;9505;50.882;5.350;2022-12-07T14:22:22;38.47;;;5.10;;
18752;SDS011;9505;50.882;5.350;2022-12-07T14:27:39;40.60;;;5.70;;
18752;SDS011;9505;50.882;5.350;2022-12-07T14:30:15;29.58;;;4.82;;
18752;SDS011;9505;50.882;5.350;2022-12-07T14:32:42;21.05;;;4.28;;
18752;SDS011;9505;50.882;5.350;2022-12-07T14:35:14;20.98;;;3.95;;
18752;SDS011;9505;50.882;5.350;2022-12-07T14:37:41;38.63;;;5.18;;
18752;SDS011;9505;50.882;5.350;2022-12-07T14:42:43;120.72;;;12.70;;
18752;SDS011;9505;50.882;5.350;2022-12-07T14:45:18;55.50;;;6.93;;
18752;SDS011;9505;50.882;5.350;2022-12-07T14:47:45;54.45;;;6.85;;
18752;SDS011;9505;50.882;5.350;2022-12-07T14:50:12;35.53;;;4.75;;
18752;SDS011;9505;50.882;5.350;2022-12-07T14:52:39;23.60;;;3.65;;
18752;SDS011;9505;50.882;5.350;2022-12-07T14:57:53;41.25;;;5.68;;
18752;SDS011;9505;50.882;5.350;2022-12-07T15:00:19;25.50;;;4.20;;
18752;SDS011;9505;50.882;5.350;2022-12-07T15:02:46;25.35;;;4.22;;
18752;SDS011;9505;50.882;5.350;2022-12-07T15:05:13;54.40;;;7.00;;
18752;SDS011;9505;50.882;5.350;2022-12-07T15:07:39;44.08;;;5.65;;
18752;SDS011;9505;50.882;5.350;2022-12-07T15:10:06;22.10;;;3.85;;
18752;SDS011;9505;50.882;5.350;2022-12-07T15:12:45;57.45;;;8.02;;
18752;SDS011;9505;50.882;5.350;2022-12-07T15:15:11;24.00;;;4.53;;
18752;SDS011;9505;50.882;5.350;2022-12-07T15:17:37;15.48;;;3.22;;
18752;SDS011;9505;50.882;5.350;2022-12-07T15:20:03;42.10;;;6.07;;
18752;SDS011;9505;50.882;5.350;2022-12-07T15:22:29;54.55;;;7.47;;
18752;SDS011;9505;50.882;5.350;2022-12-07T15:24:56;19.05;;;3.83;;
18752;SDS011;9505;50.882;5.350;2022-12-07T15:27:22;26.05;;;5.03;;
18752;SDS011;9505;50.882;5.350;2022-12-07T15:29:48;45.55;;;6.30;;
18752;SDS011;9505;50.882;5.350;2022-12-07T15:32:14;65.70;;;8.88;;
18752;SDS011;9505;50.882;5.350;2022-12-07T15:34:39;33.10;;;5.80;;
18752;SDS011;9505;50.882;5.350;2022-12-07T15:37:05;33.90;;;6.25;;
18752;SDS011;9505;50.882;5.350;2022-12-07T15:39:31;61.13;;;8.35;;
18752;SDS011;9505;50.882;5.350;2022-12-07T15:41:57;57.22;;;8.35;;
18752;SDS011;9505;50.882;5.350;2022-12-07T15:44:22;37.03;;;6.30;;
18752;SDS011;9505;50.882;5.350;2022-12-07T15:47:07;68.32;;;9.52;;
18752;SDS011;9505;50.882;5.350;2022-12-07T15:49:32;60.33;;;8.30;;
18752;SDS011;9505;50.882;5.350;2022-12-07T15:51:58;18.48;;;4.65;;
18752;SDS011;9505;50.882;5.350;2022-12-07T15:54:24;33.08;;;6.25;;
18752;SDS011;9505;50.882;5.350;2022-12-07T15:56:51;69.90;;;8.93;;
18752;SDS011;9505;50.882;5.350;2022-12-07T15:59:17;48.40;;;7.15;;
18752;SDS011;9505;50.882;5.350;2022-12-07T16:01:43;21.33;;;4.38;;
18752;SDS011;9505;50.882;5.350;2022-12-07T16:04:09;43.55;;;6.00;;
18752;SDS011;9505;50.882;5.350;2022-12-07T16:06:34;59.00;;;7.82;;
18752;SDS011;9505;50.882;5.350;2022-12-07T16:09:00;54.47;;;7.00;;
18752;SDS011;9505;50.882;5.350;2022-12-07T16:11:26;24.40;;;3.83;;
18752;SDS011;9505;50.882;5.350;2022-12-07T16:13:51;30.98;;;4.10;;
18752;SDS011;9505;50.882;5.350;2022-12-07T16:16:17;62.65;;;7.88;;
18752;SDS011;9505;50.882;5.350;2022-12-07T16:18:45;47.50;;;6.47;;
18752;SDS011;9505;50.882;5.350;2022-12-07T16:21:12;27.35;;;4.70;;
18752;SDS011;9505;50.882;5.350;2022-12-07T16:23:38;11.82;;;2.80;;
18752;SDS011;9505;50.882;5.350;2022-12-07T16:26:05;34.60;;;5.03;;
18752;SDS011;9505;50.882;5.350;2022-12-07T16:28:38;36.28;;;4.97;;
18752;SDS011;9505;50.882;5.350;2022-12-07T16:31:05;67.40;;;8.23;;
18752;SDS011;9505;50.882;5.350;2022-12-07T16:33:36;57.85;;;7.78;;
18752;SDS011;9505;50.882;5.350;2022-12-07T16:36:03;35.50;;;5.57;;
18752;SDS011;9505;50.882;5.350;2022-12-07T16:38:30;21.58;;;3.92;;
18752;SDS011;9505;50.882;5.350;2022-12-07T16:40:55;29.25;;;5.22;;
18752;SDS011;9505;50.882;5.350;2022-12-07T16:43:21;52.70;;;7.38;;
18752;SDS011;9505;50.882;5.350;2022-12-07T16:45:47;53.35;;;7.75;;
18752;SDS011;9505;50.882;5.350;2022-12-07T16:48:13;20.00;;;3.97;;
18752;SDS011;9505;50.882;5.350;2022-12-07T16:50:40;24.42;;;5.03;;
18752;SDS011;9505;50.882;5.350;2022-12-07T16:53:07;44.42;;;6.50;;
18752;SDS011;9505;50.882;5.350;2022-12-07T16:55:39;53.35;;;7.90;;
18752;SDS011;9505;50.882;5.350;2022-12-07T16:58:07;54.13;;;7.75;;
18752;SDS011;9505;50.882;5.350;2022-12-07T17:00:32;54.45;;;7.65;;
18752;SDS011;9505;50.882;5.350;2022-12-07T17:02:59;28.42;;;5.40;;
18752;SDS011;9505;50.882;5.350;2022-12-07T17:05:24;22.70;;;5.00;;
18752;SDS011;9505;50.882;5.350;2022-12-07T17:07:51;49.90;;;7.80;;
18752;SDS011;9505;50.882;5.350;2022-12-07T17:10:17;65.68;;;8.80;;
18752;SDS011;9505;50.882;5.350;2022-12-07T17:12:43;25.88;;;5.95;;